createdAt,value
2023-03-20T07:57:32.970Z,13.30
2023-03-20T07:57:44.195Z,13.21
2023-03-20T07:57:54.117Z,13.07
2023-03-20T07:58:04.410Z,13.03
2023-03-20T07:58:14.402Z,12.88
2023-03-20T07:58:24.624Z,12.70
2023-03-20T07:58:34.583Z,12.66
2023-03-20T07:58:46.205Z,12.64
2023-03-20T07:58:55.397Z,12.67
2023-03-20T07:59:04.995Z,12.71
2023-03-20T07:59:16.011Z,12.78
2023-03-20T07:59:27.565Z,12.87
2023-03-20T07:59:35.133Z,12.95
2023-03-20T07:59:45.489Z,12.97
2023-03-20T07:59:55.839Z,13.04
2023-03-20T08:00:05.724Z,13.04
2023-03-20T08:00:15.829Z,13.09
2023-03-20T08:00:27.997Z,13.14
2023-03-20T08:00:35.901Z,13.12
2023-03-20T08:00:46.026Z,13.18
2023-03-20T08:00:56.181Z,13.20
2023-03-20T08:01:06.357Z,13.21
2023-03-20T08:01:16.434Z,13.20
2023-03-20T08:01:27.310Z,13.22
2023-03-20T08:01:36.739Z,13.24
2023-03-20T08:01:46.856Z,13.25
2023-03-20T08:01:57.023Z,13.27
2023-03-20T08:02:07.150Z,13.25
2023-03-20T08:02:17.220Z,13.22
2023-03-20T08:02:27.401Z,13.24
2023-03-20T08:02:37.446Z,13.29
2023-03-20T08:02:47.753Z,13.33
2023-03-20T08:02:57.849Z,13.33
2023-03-20T08:03:07.850Z,13.30
2023-03-20T08:03:18.087Z,13.22
2023-03-20T08:03:28.148Z,13.24
2023-03-20T08:03:38.262Z,13.22
2023-03-20T08:03:48.357Z,13.18
2023-03-20T08:03:58.528Z,13.18
2023-03-20T08:04:08.708Z,13.21
2023-03-20T08:04:18.691Z,13.20
2023-03-20T08:04:28.761Z,13.21
2023-03-20T08:04:38.924Z,13.22
2023-03-20T08:04:49.128Z,13.24
2023-03-20T08:04:59.227Z,13.30
2023-03-20T08:05:09.859Z,13.36
2023-03-20T08:05:19.404Z,13.36
2023-03-20T08:05:29.572Z,13.38
2023-03-20T08:05:39.706Z,13.43
2023-03-20T08:05:49.893Z,13.44
2023-03-20T08:05:59.933Z,13.44
2023-03-20T08:06:10.067Z,13.49
2023-03-20T08:06:20.166Z,13.47
2023-03-20T08:06:30.300Z,13.46
2023-03-20T08:06:40.394Z,13.51
2023-03-20T08:06:50.756Z,13.49
2023-03-20T08:07:00.718Z,13.54
2023-03-20T08:07:10.866Z,13.58
2023-03-20T08:07:20.993Z,13.59
2023-03-20T08:07:31.993Z,13.62
2023-03-20T08:07:41.768Z,13.69
2023-03-20T08:07:51.285Z,13.67
2023-03-20T08:08:01.323Z,13.69
2023-03-20T08:08:11.639Z,13.65
2023-03-20T08:08:21.674Z,13.70
2023-03-20T08:08:31.817Z,13.76
2023-03-20T08:08:41.847Z,13.81
2023-03-20T08:08:51.945Z,13.89
2023-03-20T08:09:02.035Z,13.96
2023-03-20T08:09:12.235Z,14.02
2023-03-20T08:09:22.303Z,14.09
2023-03-20T08:09:33.907Z,14.14
2023-03-20T08:09:42.729Z,14.19
2023-03-20T08:09:52.927Z,14.16
2023-03-20T08:10:02.986Z,14.20
2023-03-20T08:10:14.098Z,14.24
2023-03-20T08:10:23.225Z,14.24
2023-03-20T08:10:33.742Z,14.27
2023-03-20T08:10:43.455Z,14.25
2023-03-20T08:10:53.511Z,14.32
2023-03-20T08:11:03.742Z,14.32
2023-03-20T08:11:13.674Z,14.31
2023-03-20T08:11:23.765Z,14.37
2023-03-20T08:11:34.748Z,14.46
2023-03-20T08:11:43.925Z,14.53
2023-03-20T08:11:54.127Z,14.60
2023-03-20T08:12:04.290Z,14.65
2023-03-20T08:12:14.525Z,14.71
2023-03-20T08:12:24.529Z,14.78
2023-03-20T08:12:34.744Z,14.78
2023-03-20T08:12:44.816Z,14.78
2023-03-20T08:12:55.121Z,14.86
2023-03-20T08:13:05.096Z,14.88
2023-03-20T08:13:18.993Z,14.87
2023-03-20T08:13:25.373Z,14.78
2023-03-20T08:13:35.533Z,14.80
2023-03-20T08:13:45.682Z,14.68
2023-03-20T08:13:55.737Z,14.69
2023-03-20T08:14:05.802Z,14.65
2023-03-20T08:14:15.997Z,14.68
2023-03-20T08:14:27.287Z,14.68
2023-03-20T08:14:36.259Z,14.72
2023-03-20T08:14:46.342Z,14.72
2023-03-20T08:14:56.391Z,14.74
2023-03-20T08:15:06.479Z,14.74
2023-03-20T08:15:16.706Z,14.78
2023-03-20T08:15:26.964Z,14.71
2023-03-20T08:15:37.140Z,14.50
2023-03-20T08:15:47.117Z,14.53
2023-03-20T08:15:57.171Z,14.54
2023-03-20T08:16:07.244Z,14.57
2023-03-20T08:16:17.375Z,14.67
2023-03-20T08:16:27.479Z,14.72
2023-03-20T08:16:37.662Z,14.80
2023-03-20T08:16:49.337Z,14.88
2023-03-20T08:17:13.279Z,14.93
2023-03-20T08:17:21.618Z,14.94
2023-03-20T08:17:27.433Z,15.08
2023-03-20T08:17:37.467Z,15.13
2023-03-20T08:17:47.607Z,15.21
2023-03-20T08:17:57.740Z,15.24
2023-03-20T08:18:08.010Z,15.17
2023-03-20T08:18:18.039Z,15.15
2023-03-20T08:18:28.154Z,15.03
2023-03-20T08:18:38.184Z,14.98
2023-03-20T08:18:48.438Z,14.98
2023-03-20T08:18:58.407Z,14.94
2023-03-20T08:19:08.489Z,14.95
2023-03-20T08:19:18.713Z,15.01
2023-03-20T08:19:28.803Z,15.05
2023-03-20T08:19:39.098Z,15.13
2023-03-20T08:19:49.035Z,15.02
2023-03-20T08:19:59.181Z,14.74
2023-03-20T08:20:09.207Z,14.46
2023-03-20T08:20:19.455Z,14.34
2023-03-20T08:20:30.599Z,14.42
2023-03-20T08:20:39.828Z,14.52
2023-03-20T08:20:49.817Z,14.61
2023-03-20T08:21:00.007Z,14.69
2023-03-20T08:21:10.313Z,14.80
2023-03-20T08:21:20.148Z,14.90
2023-03-20T08:21:30.318Z,14.99
2023-03-20T08:21:40.401Z,15.11
2023-03-20T08:21:50.588Z,15.17
2023-03-20T08:22:00.718Z,15.27
2023-03-20T08:22:10.956Z,15.35
2023-03-20T08:22:20.981Z,15.41
2023-03-20T08:22:31.052Z,15.42
2023-03-20T08:22:41.190Z,15.31
2023-03-20T08:22:51.388Z,15.21
2023-03-20T08:23:02.886Z,15.19
2023-03-20T08:23:12.449Z,15.17
2023-03-20T08:23:22.343Z,15.28
2023-03-20T08:23:31.830Z,15.36
2023-03-20T08:23:42.105Z,15.26
2023-03-20T08:23:53.005Z,15.33
2023-03-20T08:24:02.369Z,15.39
2023-03-20T08:24:12.600Z,15.21
2023-03-20T08:24:23.374Z,15.02
2023-03-20T08:24:33.979Z,14.88
2023-03-20T08:24:43.429Z,14.64
2023-03-20T08:24:53.513Z,14.32
2023-03-20T08:25:03.900Z,14.07
2023-03-20T08:25:13.129Z,14.10
2023-03-20T08:25:23.405Z,13.84
2023-03-20T08:25:33.419Z,13.63
2023-03-20T08:25:44.310Z,13.37
2023-03-20T08:25:53.598Z,13.20
2023-03-20T08:26:03.690Z,13.04
2023-03-20T08:26:13.786Z,12.85
2023-03-20T08:26:23.801Z,12.74
2023-03-20T08:26:34.022Z,12.81
2023-03-20T08:26:44.340Z,12.93
2023-03-20T08:26:55.029Z,13.04
2023-03-20T08:27:04.338Z,13.12
2023-03-20T08:27:14.436Z,13.21
2023-03-20T08:27:25.484Z,13.25
2023-03-20T08:27:34.788Z,13.30
2023-03-20T08:27:44.915Z,13.32
2023-03-20T08:27:54.979Z,13.32
2023-03-20T08:28:05.103Z,13.40
2023-03-20T08:28:15.196Z,13.44
2023-03-20T08:28:40.196Z,13.44
2023-03-20T08:28:52.470Z,13.41
2023-03-20T08:28:58.071Z,13.32
2023-03-20T08:29:08.208Z,13.27
2023-03-20T08:29:18.438Z,13.12
2023-03-20T08:29:28.560Z,13.06
2023-03-20T08:29:38.593Z,12.99
2023-03-20T08:29:48.855Z,12.96
2023-03-20T08:29:58.962Z,12.88
2023-03-20T08:30:08.994Z,12.81
2023-03-20T08:30:19.121Z,12.67
2023-03-20T08:30:29.311Z,12.66
2023-03-20T08:30:39.495Z,12.60
2023-03-20T08:30:49.598Z,12.56
2023-03-20T08:30:59.863Z,12.54
2023-03-20T08:31:09.913Z,12.48
2023-03-20T08:31:19.941Z,12.45
2023-03-20T08:31:29.911Z,12.44
2023-03-20T08:31:40.199Z,12.51
2023-03-20T08:31:50.220Z,12.52
2023-03-20T08:32:00.338Z,12.63
2023-03-20T08:32:10.477Z,12.74
2023-03-20T08:32:20.714Z,12.67
2023-03-20T08:32:30.756Z,12.75
2023-03-20T08:32:40.910Z,12.85
2023-03-20T08:35:04.135Z,14.37
2023-03-20T08:35:31.739Z,14.54
2023-03-20T08:35:38.378Z,14.84
2023-03-20T08:35:44.148Z,15.27
2023-03-20T08:35:53.998Z,15.52
2023-03-20T08:36:04.085Z,15.76
2023-03-20T08:36:14.336Z,15.92
2023-03-20T08:36:24.347Z,16.14
2023-03-20T08:36:34.385Z,16.34
2023-03-20T08:36:44.501Z,16.59
2023-03-20T08:36:54.650Z,16.81
2023-03-20T08:37:04.763Z,17.04
2023-03-20T08:37:14.862Z,17.28
2023-03-20T08:37:24.944Z,17.53
2023-03-20T08:37:35.160Z,17.70
2023-03-20T08:37:45.353Z,17.94
2023-03-20T08:37:55.452Z,18.17
2023-03-20T08:38:05.481Z,18.36
2023-03-20T08:38:15.636Z,18.58
2023-03-20T08:38:25.788Z,18.76
2023-03-20T08:38:35.850Z,18.90
2023-03-20T08:38:45.889Z,19.05
2023-03-20T08:38:56.134Z,19.20
2023-03-20T08:39:06.290Z,19.31
2023-03-20T08:39:16.358Z,19.43
2023-03-20T08:39:26.503Z,19.54
2023-03-20T08:39:36.613Z,19.57
2023-03-20T08:39:47.854Z,19.65
2023-03-20T08:39:56.928Z,19.72
2023-03-20T08:40:07.140Z,19.83
2023-03-20T08:40:18.134Z,19.94
2023-03-20T08:40:27.213Z,19.95
2023-03-20T08:40:37.343Z,19.84
2023-03-20T08:40:47.462Z,19.54
2023-03-20T08:40:58.553Z,19.24
2023-03-20T08:41:07.801Z,18.73
2023-03-20T08:41:18.993Z,18.19
2023-03-20T08:41:28.020Z,17.70
2023-03-20T08:41:38.622Z,17.28
2023-03-20T08:41:49.605Z,16.93
2023-03-20T08:42:00.559Z,16.68
2023-03-20T08:42:08.358Z,16.31
2023-03-20T08:42:18.592Z,15.97
2023-03-20T08:42:28.762Z,15.74
2023-03-20T08:42:41.710Z,15.43
2023-03-20T08:42:49.079Z,15.17
2023-03-20T08:42:59.270Z,14.95
2023-03-20T08:43:09.257Z,14.75
2023-03-20T08:43:20.008Z,14.56
2023-03-20T08:43:29.421Z,14.43
2023-03-20T08:43:39.820Z,14.34
2023-03-20T08:43:49.637Z,14.20
2023-03-20T08:43:59.795Z,14.07
2023-03-20T08:44:09.913Z,13.94
2023-03-20T08:44:20.220Z,13.76
2023-03-20T08:44:30.173Z,13.67
2023-03-20T08:44:40.396Z,13.58
2023-03-20T08:44:50.527Z,13.52
2023-03-20T08:45:00.618Z,13.49
2023-03-20T08:45:10.727Z,13.44
2023-03-20T08:45:21.688Z,13.37
2023-03-20T08:45:31.014Z,13.30
2023-03-20T08:45:41.136Z,13.27
2023-03-20T08:45:51.223Z,13.24
2023-03-20T08:46:01.456Z,13.17
2023-03-20T08:46:11.479Z,13.18
2023-03-20T08:46:21.577Z,13.15
2023-03-20T08:46:32.666Z,13.11
2023-03-20T08:46:41.845Z,13.06
2023-03-20T08:46:51.917Z,12.96
2023-03-20T08:47:02.196Z,12.93
2023-03-20T08:47:12.137Z,12.87
2023-03-20T08:47:22.182Z,12.84
2023-03-20T08:47:32.414Z,12.81
2023-03-20T08:47:42.486Z,12.70
2023-03-20T08:47:52.638Z,12.64
2023-03-20T08:48:02.843Z,12.56
2023-03-20T08:48:12.887Z,12.54
2023-03-20T08:48:23.051Z,12.49
2023-03-20T08:48:33.103Z,12.48
2023-03-20T08:48:43.279Z,12.45
2023-03-20T08:48:53.354Z,12.45
2023-03-20T08:49:03.611Z,12.49
2023-03-20T08:49:13.562Z,12.52
2023-03-20T08:49:23.615Z,12.51
2023-03-20T08:49:33.767Z,12.49
2023-03-20T08:49:44.023Z,12.52
2023-03-20T08:49:54.061Z,12.56
2023-03-20T08:50:04.172Z,12.57
2023-03-20T08:50:14.362Z,12.59
2023-03-20T08:50:24.413Z,12.60
2023-03-20T08:50:34.572Z,12.66
2023-03-20T08:50:46.788Z,12.69
2023-03-20T08:50:54.772Z,12.69
2023-03-20T08:51:04.867Z,12.71
2023-03-20T08:51:16.980Z,12.77
2023-03-20T08:51:25.093Z,12.84
2023-03-20T08:51:35.167Z,12.96
2023-03-20T08:51:45.402Z,12.99
2023-03-20T08:51:55.643Z,12.92
2023-03-20T08:52:05.672Z,12.85
2023-03-20T08:52:15.737Z,12.81
2023-03-20T08:52:25.939Z,12.79
2023-03-20T08:52:35.981Z,12.75
2023-03-20T08:52:46.295Z,12.71
2023-03-20T08:52:56.483Z,12.69
2023-03-20T08:53:06.548Z,12.64
2023-03-20T08:53:16.519Z,12.64
2023-03-20T08:53:26.663Z,12.59
2023-03-20T08:53:36.851Z,12.54
2023-03-20T08:53:46.915Z,12.52
2023-03-20T08:53:57.082Z,12.49
2023-03-20T08:54:07.095Z,12.48
2023-03-20T08:54:17.497Z,12.44
2023-03-20T08:54:27.518Z,12.44
2023-03-20T08:54:37.566Z,12.45
2023-03-20T08:54:47.727Z,12.45
2023-03-20T08:54:58.567Z,12.45
2023-03-20T08:55:08.026Z,12.42
2023-03-20T08:55:18.064Z,12.42
2023-03-20T08:55:28.152Z,12.41
2023-03-20T08:55:38.512Z,12.41
2023-03-20T08:55:48.406Z,12.37
2023-03-20T08:55:59.263Z,12.37
2023-03-20T08:56:08.649Z,12.39
2023-03-20T08:56:18.776Z,12.34
2023-03-20T08:56:28.723Z,12.33
2023-03-20T08:56:38.976Z,12.34
2023-03-20T08:56:49.023Z,12.33
2023-03-20T08:56:59.604Z,12.33
2023-03-20T08:57:09.300Z,12.37
2023-03-20T08:57:19.362Z,12.39
2023-03-20T08:57:29.738Z,12.39
2023-03-20T08:57:39.828Z,12.41
2023-03-20T08:57:49.834Z,12.38
